createdAt,value
2022-12-24T00:00:11.017Z,6.20
2022-12-24T00:02:39.991Z,6.30
2022-12-24T00:05:07.042Z,6.20
2022-12-24T00:07:35.207Z,6.20
2022-12-24T00:10:01.689Z,6.20
2022-12-24T00:12:28.222Z,6.20
2022-12-24T00:14:54.712Z,6.20
2022-12-24T00:17:21.339Z,6.20
2022-12-24T00:19:49.202Z,6.20
2022-12-24T00:22:15.699Z,6.20
2022-12-24T00:24:42.204Z,6.10
2022-12-24T00:27:08.778Z,6.10
2022-12-24T00:29:35.325Z,6.10
2022-12-24T00:32:01.883Z,6.10
2022-12-24T00:34:28.409Z,6.10
2022-12-24T00:36:54.915Z,6.00
2022-12-24T00:39:21.593Z,6.00
2022-12-24T00:41:48.095Z,6.10
2022-12-24T00:44:14.710Z,6.10
2022-12-24T00:46:42.047Z,6.10
2022-12-24T00:49:10.939Z,6.10
2022-12-24T00:51:37.715Z,6.20
2022-12-24T00:54:05.038Z,6.10
2022-12-24T00:56:31.841Z,6.20
2022-12-24T00:58:58.500Z,6.10
2022-12-24T01:01:25.461Z,6.00
2022-12-24T01:03:52.635Z,6.10
2022-12-24T01:06:21.354Z,6.00
2022-12-24T01:08:51.275Z,6.10
2022-12-24T01:11:18.343Z,6.00
2022-12-24T01:13:44.887Z,6.00
2022-12-24T01:16:20.275Z,5.90
2022-12-24T01:18:47.387Z,6.00
2022-12-24T01:21:13.978Z,5.90
2022-12-24T01:23:40.699Z,6.00
2022-12-24T01:26:07.222Z,5.90
2022-12-24T01:28:33.921Z,6.00
2022-12-24T01:31:00.509Z,5.90
2022-12-24T01:33:30.657Z,5.90
2022-12-24T01:36:02.183Z,5.90
2022-12-24T01:38:28.624Z,5.80
2022-12-24T01:41:13.697Z,5.90
2022-12-24T01:43:40.560Z,6.00
2022-12-24T01:46:16.387Z,6.00
2022-12-24T01:48:56.437Z,5.90
2022-12-24T01:51:39.460Z,5.80
2022-12-24T01:54:11.438Z,5.80
2022-12-24T01:56:44.332Z,5.90
2022-12-24T01:59:14.874Z,5.80
2022-12-24T02:01:41.550Z,5.80
2022-12-24T02:04:38.143Z,5.80
2022-12-24T02:07:04.769Z,5.80
2022-12-24T02:09:33.181Z,5.90
2022-12-24T02:12:00.104Z,5.90
2022-12-24T02:14:29.262Z,5.80
2022-12-24T02:17:22.180Z,5.90
2022-12-24T02:20:17.562Z,5.90
2022-12-24T02:23:00.194Z,6.00
2022-12-24T02:25:52.953Z,6.00
2022-12-24T02:28:29.967Z,5.90
2022-12-24T02:31:04.200Z,5.90
2022-12-24T02:33:38.128Z,5.90
2022-12-24T02:36:11.521Z,5.90
2022-12-24T02:39:02.785Z,5.80
2022-12-24T02:41:54.040Z,5.90
2022-12-24T02:44:24.077Z,6.00
2022-12-24T02:46:51.393Z,6.00
2022-12-24T02:49:17.934Z,6.00
2022-12-24T02:51:44.456Z,6.00
2022-12-24T02:54:12.380Z,5.90
2022-12-24T02:56:48.862Z,6.00
2022-12-24T02:59:34.904Z,6.10
2022-12-24T03:02:26.712Z,5.90
2022-12-24T03:05:05.615Z,6.00
2022-12-24T03:07:38.689Z,5.90
2022-12-24T03:10:27.106Z,5.90
2022-12-24T03:12:57.854Z,5.90
2022-12-24T03:15:26.459Z,6.00
2022-12-24T03:17:57.440Z,5.90
2022-12-24T03:20:34.970Z,6.00
2022-12-24T03:23:01.619Z,6.00
2022-12-24T03:25:28.341Z,5.90
2022-12-24T03:27:57.462Z,5.90
2022-12-24T03:30:24.378Z,5.90
2022-12-24T03:32:50.932Z,5.90
2022-12-24T03:35:17.458Z,5.90
2022-12-24T03:37:44.101Z,5.90
2022-12-24T03:40:10.920Z,5.90
2022-12-24T03:42:37.478Z,6.00
2022-12-24T03:45:04.571Z,5.80
2022-12-24T03:47:31.805Z,5.80
2022-12-24T03:49:58.404Z,5.90
2022-12-24T03:52:24.886Z,5.90
2022-12-24T03:54:51.524Z,5.90
2022-12-24T03:57:18.477Z,5.90
2022-12-24T03:59:45.570Z,5.90
2022-12-24T04:02:12.293Z,6.00
2022-12-24T04:04:39.092Z,6.10
2022-12-24T04:07:06.344Z,6.10
2022-12-24T04:09:32.901Z,6.00
2022-12-24T04:11:59.519Z,6.00
2022-12-24T04:14:26.104Z,6.00
2022-12-24T04:16:52.596Z,6.00
2022-12-24T04:19:19.192Z,6.00
2022-12-24T04:21:45.697Z,6.00
2022-12-24T04:24:12.328Z,6.00
2022-12-24T04:26:38.833Z,6.00
2022-12-24T04:29:05.317Z,6.00
2022-12-24T04:31:31.810Z,5.90
2022-12-24T04:33:58.350Z,5.90
2022-12-24T04:36:24.930Z,5.90
2022-12-24T04:38:51.450Z,6.00
2022-12-24T04:41:23.846Z,6.00
2022-12-24T04:43:52.954Z,6.10
2022-12-24T04:46:22.470Z,6.20
2022-12-24T04:48:50.964Z,6.20
2022-12-24T04:51:18.260Z,6.20
2022-12-24T04:53:44.822Z,6.10
2022-12-24T04:56:16.303Z,6.10
2022-12-24T04:58:43.154Z,6.20
2022-12-24T05:01:14.889Z,6.20
2022-12-24T05:03:41.664Z,6.20
2022-12-24T05:06:12.041Z,6.10
2022-12-24T05:08:38.909Z,6.20
2022-12-24T05:11:05.866Z,6.20
2022-12-24T05:13:40.712Z,6.10
2022-12-24T05:16:11.998Z,6.10
2022-12-24T05:18:38.621Z,6.10
2022-12-24T05:21:14.221Z,6.10
2022-12-24T05:23:59.389Z,6.10
2022-12-24T05:26:37.004Z,5.90
2022-12-24T05:29:04.795Z,6.00
2022-12-24T05:31:33.282Z,6.00
2022-12-24T05:34:00.474Z,5.90
2022-12-24T05:36:27.060Z,5.90
2022-12-24T05:38:53.661Z,5.90
2022-12-24T05:41:20.496Z,6.00
2022-12-24T05:43:47.175Z,6.00
2022-12-24T05:46:16.112Z,6.00
2022-12-24T05:48:42.695Z,6.00
2022-12-24T05:51:11.897Z,6.00
2022-12-24T05:53:40.052Z,6.00
2022-12-24T05:56:07.667Z,6.00
2022-12-24T05:58:34.264Z,6.10
2022-12-24T06:01:02.361Z,6.00
2022-12-24T06:03:29.915Z,6.00
2022-12-24T06:06:04.884Z,5.90
2022-12-24T06:08:32.245Z,6.10
2022-12-24T06:11:00.981Z,6.10
2022-12-24T06:13:27.676Z,6.20
2022-12-24T06:15:59.562Z,6.10
2022-12-24T06:18:26.044Z,6.20
2022-12-24T06:20:57.687Z,6.20
2022-12-24T06:23:24.226Z,6.00
2022-12-24T06:25:51.563Z,6.00
2022-12-24T06:28:18.639Z,6.10
2022-12-24T06:30:49.691Z,6.00
2022-12-24T06:33:17.389Z,6.00
2022-12-24T06:35:47.452Z,5.90
2022-12-24T06:38:14.887Z,5.90
2022-12-24T06:40:43.420Z,6.00
2022-12-24T06:43:11.099Z,5.90
2022-12-24T06:45:37.813Z,5.90
2022-12-24T06:48:04.840Z,5.90
2022-12-24T06:50:31.362Z,5.80
2022-12-24T06:52:57.880Z,5.90
2022-12-24T06:55:24.474Z,5.80
2022-12-24T06:57:50.983Z,5.80
2022-12-24T07:00:17.799Z,5.90
2022-12-24T07:02:45.208Z,6.00
2022-12-24T07:05:12.772Z,6.00
2022-12-24T07:07:41.107Z,5.90
2022-12-24T07:10:10.519Z,5.80
2022-12-24T07:12:37.046Z,5.90
2022-12-24T07:15:03.939Z,5.80
2022-12-24T07:17:30.570Z,6.00
2022-12-24T07:19:57.078Z,5.90
2022-12-24T07:22:23.677Z,5.90
2022-12-24T07:24:50.519Z,6.00
2022-12-24T07:27:16.985Z,6.10
2022-12-24T07:29:44.735Z,6.10
2022-12-24T07:32:11.193Z,6.00
2022-12-24T07:34:39.665Z,6.00
2022-12-24T07:37:07.569Z,6.00
2022-12-24T07:39:34.075Z,5.90
2022-12-24T07:42:00.690Z,6.00
2022-12-24T07:44:27.343Z,6.10
2022-12-24T07:46:54.137Z,6.00
2022-12-24T07:49:20.598Z,6.10
2022-12-24T07:51:50.071Z,6.00
2022-12-24T07:54:16.591Z,6.00
2022-12-24T07:56:43.214Z,6.00
2022-12-24T07:59:12.929Z,6.00
2022-12-24T08:01:39.883Z,6.10
2022-12-24T08:04:06.780Z,6.20
2022-12-24T08:06:33.664Z,6.20
2022-12-24T08:09:00.191Z,6.20
2022-12-24T08:11:26.704Z,6.20
2022-12-24T08:13:53.231Z,6.20
2022-12-24T08:16:19.731Z,6.10
2022-12-24T08:18:46.191Z,6.20
2022-12-24T08:21:12.692Z,6.20
2022-12-24T08:23:39.135Z,6.30
2022-12-24T08:26:10.390Z,6.10
2022-12-24T08:28:37.544Z,6.20
2022-12-24T08:31:04.455Z,6.20
2022-12-24T08:33:32.238Z,6.10
2022-12-24T08:36:01.333Z,6.20
2022-12-24T08:38:27.826Z,6.30
2022-12-24T08:40:55.335Z,6.20
2022-12-24T08:43:22.597Z,6.10
2022-12-24T08:45:50.212Z,6.20
2022-12-24T08:48:17.943Z,6.10
2022-12-24T08:50:44.764Z,6.30
2022-12-24T08:53:11.776Z,6.30
2022-12-24T08:55:38.471Z,6.30
2022-12-24T08:58:05.522Z,6.20
2022-12-24T09:00:32.029Z,6.30
2022-12-24T09:02:58.605Z,6.30
2022-12-24T09:05:26.113Z,6.40
2022-12-24T09:07:53.044Z,6.40
2022-12-24T09:10:19.539Z,6.40
2022-12-24T09:12:46.033Z,6.50
2022-12-24T09:15:14.146Z,6.50
2022-12-24T09:17:41.022Z,6.50
2022-12-24T09:20:08.252Z,6.60
2022-12-24T09:22:37.106Z,6.60
2022-12-24T09:25:04.795Z,6.60
2022-12-24T09:27:32.021Z,6.70
2022-12-24T09:29:58.492Z,6.80
2022-12-24T09:32:24.958Z,6.90
2022-12-24T09:34:51.594Z,6.90
2022-12-24T09:37:20.553Z,6.90
2022-12-24T09:39:47.475Z,6.90
2022-12-24T09:42:39.049Z,6.90
2022-12-24T09:45:23.035Z,6.80
2022-12-24T09:47:54.356Z,6.90
2022-12-24T09:50:41.299Z,6.80
2022-12-24T09:53:17.946Z,6.70
2022-12-24T09:55:48.477Z,6.80
2022-12-24T09:58:26.298Z,6.80
2022-12-24T10:00:54.367Z,6.80
2022-12-24T10:03:20.977Z,7.00
2022-12-24T10:05:59.546Z,6.90
2022-12-24T10:08:35.579Z,6.90
2022-12-24T10:11:16.851Z,6.90
2022-12-24T10:14:02.764Z,6.90
2022-12-24T10:16:49.945Z,6.80
2022-12-24T10:19:39.945Z,6.90
2022-12-24T10:22:12.677Z,6.80
2022-12-24T10:24:51.091Z,6.90
2022-12-24T10:27:24.642Z,7.10
2022-12-24T10:30:13.262Z,7.20
2022-12-24T10:32:43.430Z,7.20
2022-12-24T10:35:15.617Z,7.30
2022-12-24T10:37:47.975Z,7.40
2022-12-24T10:40:30.616Z,7.30
2022-12-24T10:42:59.627Z,7.40
2022-12-24T10:45:35.628Z,7.40
2022-12-24T10:48:07.062Z,7.40
2022-12-24T10:50:46.120Z,7.30
2022-12-24T10:53:34.998Z,7.10
2022-12-24T10:56:07.410Z,7.30
2022-12-24T10:58:34.831Z,7.30
2022-12-24T11:01:07.414Z,7.30
2022-12-24T11:03:43.707Z,7.40
2022-12-24T11:06:25.563Z,7.50
2022-12-24T11:09:54.039Z,7.50
2022-12-24T11:12:08.699Z,7.50
2022-12-24T11:14:51.394Z,7.50
2022-12-24T11:17:37.882Z,7.40
2022-12-24T11:20:23.616Z,7.50
2022-12-24T11:23:05.605Z,7.30
2022-12-24T11:25:59.391Z,7.40
2022-12-24T11:28:59.321Z,7.40
2022-12-24T11:32:06.503Z,7.30
2022-12-24T11:34:45.389Z,7.30
2022-12-24T11:37:29.048Z,7.30
2022-12-24T11:40:08.789Z,7.30
2022-12-24T11:43:32.691Z,7.40
2022-12-24T11:46:02.284Z,7.70
2022-12-24T11:49:08.812Z,7.80
2022-12-24T11:52:19.332Z,7.90
2022-12-24T11:55:28.142Z,7.80
2022-12-24T11:58:18.135Z,7.60
2022-12-24T12:00:59.055Z,7.60
2022-12-24T12:03:41.866Z,7.60
2022-12-24T12:06:23.678Z,7.60
2022-12-24T12:08:55.914Z,7.60
2022-12-24T12:11:24.614Z,7.70
2022-12-24T12:13:52.428Z,7.70
2022-12-24T12:16:26.986Z,7.70
2022-12-24T12:19:13.086Z,7.70
2022-12-24T12:21:45.624Z,7.70
2022-12-24T12:24:29.984Z,7.80
2022-12-24T12:27:12.238Z,7.70
2022-12-24T12:29:45.745Z,7.70
2022-12-24T12:32:22.840Z,7.80
2022-12-24T12:35:01.705Z,7.80
2022-12-24T12:37:38.230Z,7.90
2022-12-24T12:40:13.551Z,8.00
2022-12-24T12:42:40.758Z,8.00
2022-12-24T12:45:33.041Z,8.00
2022-12-24T12:48:24.899Z,8.10
2022-12-24T12:51:08.066Z,8.20
2022-12-24T12:54:06.972Z,8.30
2022-12-24T12:56:37.665Z,8.40
2022-12-24T12:59:16.999Z,8.40
2022-12-24T13:02:17.490Z,8.30
2022-12-24T13:05:21.723Z,8.30
2022-12-24T13:08:07.531Z,8.30
2022-12-24T13:10:45.497Z,8.50
2022-12-24T13:13:21.040Z,8.70
2022-12-24T13:16:13.139Z,8.60
2022-12-24T13:18:58.352Z,8.60
2022-12-24T13:21:28.141Z,8.60
2022-12-24T13:24:21.331Z,8.60
2022-12-24T13:27:14.871Z,8.70
2022-12-24T13:29:51.306Z,8.90
2022-12-24T13:32:20.716Z,8.90
2022-12-24T13:34:57.889Z,9.10
2022-12-24T13:37:30.417Z,9.10
2022-12-24T13:40:06.032Z,9.20
2022-12-24T13:43:01.970Z,9.20
2022-12-24T13:45:32.636Z,9.40
2022-12-24T13:48:11.106Z,9.40
2022-12-24T13:50:40.685Z,9.40
2022-12-24T13:53:18.665Z,9.40
2022-12-24T13:56:16.598Z,9.50
2022-12-24T13:58:47.817Z,9.00
2022-12-24T14:01:18.409Z,9.00
2022-12-24T14:03:48.651Z,9.10
2022-12-24T14:06:25.286Z,9.00
2022-12-24T14:08:55.644Z,9.10
2022-12-24T14:11:25.621Z,9.30
2022-12-24T14:14:22.949Z,9.10
2022-12-24T14:16:51.341Z,9.20
2022-12-24T14:19:31.106Z,9.20
2022-12-24T14:22:24.150Z,9.20
2022-12-24T14:24:56.508Z,9.10
2022-12-24T14:27:38.695Z,9.10
2022-12-24T14:30:18.740Z,8.70
2022-12-24T14:32:46.415Z,8.50
2022-12-24T14:35:20.925Z,8.60
2022-12-24T14:37:57.054Z,8.50
2022-12-24T14:40:29.324Z,8.70
2022-12-24T14:43:17.791Z,8.70
2022-12-24T14:45:54.270Z,8.60
2022-12-24T14:48:29.808Z,8.70
2022-12-24T14:51:24.216Z,8.50
2022-12-24T14:54:05.699Z,8.60
2022-12-24T14:56:32.381Z,8.60
2022-12-24T14:59:04.518Z,8.50
2022-12-24T15:01:36.577Z,8.20
2022-12-24T15:04:14.251Z,8.10
2022-12-24T15:06:49.341Z,7.80
2022-12-24T15:09:29.258Z,7.70
2022-12-24T15:11:59.897Z,7.60
2022-12-24T15:14:29.291Z,7.60
2022-12-24T15:17:02.869Z,7.50
2022-12-24T15:19:37.209Z,7.40
2022-12-24T15:22:22.390Z,7.30
2022-12-24T15:24:48.831Z,7.30
2022-12-24T15:27:17.037Z,7.30
2022-12-24T15:29:45.274Z,7.10
2022-12-24T15:32:16.770Z,7.10
2022-12-24T15:34:44.987Z,7.00
2022-12-24T15:37:19.051Z,6.90
2022-12-24T15:39:54.486Z,6.70
2022-12-24T15:42:22.760Z,6.60
2022-12-24T15:45:02.808Z,6.40
2022-12-24T15:47:38.530Z,6.40
2022-12-24T15:50:18.816Z,6.10
2022-12-24T15:52:46.317Z,6.10
2022-12-24T15:55:38.178Z,6.00
2022-12-24T15:58:18.353Z,5.90
2022-12-24T16:00:59.798Z,5.90
2022-12-24T16:03:26.542Z,5.90
2022-12-24T16:06:19.628Z,5.70
2022-12-24T16:08:46.848Z,5.70
2022-12-24T16:11:23.599Z,5.60
2022-12-24T16:14:02.463Z,5.60
2022-12-24T16:16:58.599Z,5.50
2022-12-24T16:19:39.412Z,5.50
2022-12-24T16:22:25.050Z,5.50
2022-12-24T16:24:52.728Z,5.40
2022-12-24T16:27:19.297Z,5.30
2022-12-24T16:29:47.012Z,5.20
2022-12-24T16:32:35.813Z,5.10
2022-12-24T16:35:10.789Z,5.10
2022-12-24T16:37:37.595Z,5.00
2022-12-24T16:40:04.597Z,5.00
2022-12-24T16:42:49.909Z,4.90
2022-12-24T16:45:16.447Z,4.80
2022-12-24T16:47:43.840Z,4.80
2022-12-24T16:50:16.349Z,4.60
2022-12-24T16:52:43.594Z,4.70
2022-12-24T16:55:15.470Z,4.70
2022-12-24T16:57:43.171Z,4.60
2022-12-24T17:00:16.534Z,4.60
2022-12-24T17:02:43.304Z,4.60
2022-12-24T17:05:10.451Z,4.50
2022-12-24T17:07:43.087Z,4.50
2022-12-24T17:10:14.504Z,4.50
2022-12-24T17:12:41.824Z,4.50
2022-12-24T17:15:08.937Z,4.30
2022-12-24T17:17:35.577Z,4.20
2022-12-24T17:20:02.523Z,4.20
2022-12-24T17:22:29.181Z,4.00
2022-12-24T17:24:56.243Z,4.10
2022-12-24T17:27:24.762Z,4.10
2022-12-24T17:29:51.547Z,4.00
2022-12-24T17:32:22.298Z,4.00
2022-12-24T17:34:49.072Z,4.00
2022-12-24T17:37:15.868Z,4.00
2022-12-24T17:39:42.616Z,4.00
2022-12-24T17:42:09.219Z,4.10
2022-12-24T17:44:35.861Z,4.20
2022-12-24T17:47:05.334Z,4.20
2022-12-24T17:49:32.280Z,4.20
2022-12-24T17:52:01.309Z,4.30
2022-12-24T17:54:29.144Z,4.10
2022-12-24T17:56:55.712Z,4.20
2022-12-24T17:59:22.232Z,4.20
2022-12-24T18:01:51.149Z,4.10
2022-12-24T18:04:18.055Z,4.10
2022-12-24T18:06:49.343Z,4.20
2022-12-24T18:09:16.926Z,4.20
2022-12-24T18:11:43.560Z,4.30
2022-12-24T18:14:11.014Z,4.40
2022-12-24T18:16:42.508Z,4.50
2022-12-24T18:19:11.561Z,4.70
2022-12-24T18:21:38.412Z,4.90
2022-12-24T18:24:05.606Z,4.90
2022-12-24T18:26:33.906Z,5.20
2022-12-24T18:29:01.887Z,5.10
2022-12-24T18:31:29.959Z,5.20
2022-12-24T18:33:57.506Z,5.40
2022-12-24T18:36:24.732Z,5.50
2022-12-24T18:38:51.784Z,5.60
2022-12-24T18:41:22.093Z,5.60
2022-12-24T18:43:49.208Z,5.40
2022-12-24T18:46:18.597Z,5.40
2022-12-24T18:48:45.997Z,5.30
2022-12-24T18:51:13.460Z,5.40
2022-12-24T18:53:40.070Z,5.40
2022-12-24T18:56:16.010Z,5.60
2022-12-24T18:58:44.906Z,5.70
2022-12-24T19:01:23.062Z,5.60
2022-12-24T19:03:50.459Z,5.80
2022-12-24T19:06:19.251Z,5.80
2022-12-24T19:09:03.412Z,5.90
2022-12-24T19:11:31.810Z,5.90
2022-12-24T19:13:58.750Z,5.90
2022-12-24T19:16:26.300Z,6.00
2022-12-24T19:18:55.938Z,6.20
2022-12-24T19:21:23.371Z,6.20
2022-12-24T19:23:49.925Z,6.10
2022-12-24T19:26:20.862Z,6.00
2022-12-24T19:28:51.316Z,6.00
2022-12-24T19:31:24.594Z,6.00
2022-12-24T19:33:59.265Z,5.90
2022-12-24T19:36:31.980Z,5.90
2022-12-24T19:39:01.709Z,5.90
2022-12-24T19:41:30.870Z,5.90
2022-12-24T19:44:01.122Z,5.90
2022-12-24T19:46:32.227Z,5.90
2022-12-24T19:49:00.920Z,5.80
2022-12-24T19:51:28.969Z,5.70
2022-12-24T19:53:56.571Z,5.70
2022-12-24T19:56:24.779Z,5.80
2022-12-24T19:58:51.992Z,5.70
2022-12-24T20:01:22.919Z,5.70
2022-12-24T20:03:51.414Z,5.80
2022-12-24T20:06:20.899Z,5.90
2022-12-24T20:08:48.538Z,5.90
2022-12-24T20:11:17.995Z,5.90
2022-12-24T20:13:49.037Z,5.90
2022-12-24T20:16:20.201Z,5.90
2022-12-24T20:19:01.112Z,5.60
2022-12-24T20:21:27.968Z,5.70
2022-12-24T20:23:55.072Z,5.80
2022-12-24T20:26:26.261Z,6.10
2022-12-24T20:28:54.058Z,6.20
2022-12-24T20:31:23.865Z,6.40
2022-12-24T20:33:50.878Z,6.50
2022-12-24T20:36:19.379Z,6.60
2022-12-24T20:38:46.921Z,6.60
2022-12-24T20:41:15.113Z,6.70
2022-12-24T20:43:47.912Z,6.70
2022-12-24T20:46:16.737Z,6.70
2022-12-24T20:48:44.171Z,6.90
2022-12-24T20:51:20.983Z,6.90
2022-12-24T20:53:51.264Z,6.80
2022-12-24T20:56:17.923Z,6.80
2022-12-24T20:58:45.335Z,6.90
2022-12-24T21:01:14.939Z,6.80
2022-12-24T21:03:41.550Z,6.80
2022-12-24T21:06:13.097Z,6.90
2022-12-24T21:08:47.487Z,6.90
2022-12-24T21:11:32.554Z,7.00
2022-12-24T21:13:59.344Z,7.00
2022-12-24T21:16:25.938Z,7.00
2022-12-24T21:18:52.826Z,7.00
2022-12-24T21:21:19.536Z,7.00
2022-12-24T21:23:46.220Z,7.00
2022-12-24T21:26:14.405Z,7.00
2022-12-24T21:28:40.961Z,7.10
2022-12-24T21:31:11.875Z,7.10
2022-12-24T21:33:42.559Z,7.10
2022-12-24T21:36:43.002Z,7.10
2022-12-24T21:39:09.575Z,7.10
2022-12-24T21:41:43.579Z,7.10
2022-12-24T21:44:14.155Z,7.10
2022-12-24T21:46:40.779Z,7.10
2022-12-24T21:49:41.945Z,7.10
2022-12-24T21:52:11.435Z,7.10
2022-12-24T21:54:38.540Z,7.20
2022-12-24T21:57:26.839Z,7.10
2022-12-24T22:00:03.918Z,7.20
2022-12-24T22:02:33.891Z,7.20
2022-12-24T22:05:16.326Z,7.20
2022-12-24T22:08:20.304Z,7.20
2022-12-24T22:11:30.708Z,7.20
2022-12-24T22:14:01.121Z,7.20
2022-12-24T22:16:30.748Z,7.20
2022-12-24T22:18:57.626Z,7.20
2022-12-24T22:21:24.121Z,7.30
2022-12-24T22:24:03.491Z,7.20
2022-12-24T22:26:40.899Z,7.20
2022-12-24T22:29:16.572Z,7.30
2022-12-24T22:34:33.010Z,7.20
2022-12-24T22:36:59.616Z,7.20
2022-12-24T22:40:00.322Z,7.20
2022-12-24T22:42:30.677Z,7.10
2022-12-24T22:45:01.969Z,7.20
2022-12-24T22:47:37.636Z,7.20
2022-12-24T22:50:08.189Z,7.10
2022-12-24T22:52:41.623Z,7.10
2022-12-24T22:55:19.165Z,7.10
2022-12-24T22:57:45.838Z,7.10
2022-12-24T23:00:44.365Z,7.10
2022-12-24T23:03:14.961Z,7.10
2022-12-24T23:05:41.905Z,7.10
2022-12-24T23:08:26.944Z,7.20
2022-12-24T23:11:51.503Z,7.10
2022-12-24T23:20:36.847Z,7.00
2022-12-24T23:23:52.041Z,6.90
2022-12-24T23:26:36.602Z,6.90
2022-12-24T23:29:11.750Z,6.90
2022-12-24T23:31:38.666Z,7.00
2022-12-24T23:34:07.278Z,6.90
2022-12-24T23:36:34.956Z,6.80
2022-12-24T23:39:02.601Z,6.90
2022-12-24T23:41:34.050Z,6.80
2022-12-24T23:44:09.734Z,6.60
2022-12-24T23:46:39.394Z,6.70
2022-12-24T23:49:14.483Z,6.60
2022-12-24T23:51:48.253Z,6.50
2022-12-24T23:54:17.551Z,6.50
2022-12-24T23:56:52.973Z,6.50
2022-12-24T23:59:20.243Z,6.30
